sensor_id;sensor_type;location;lat;lon;timestamp;P1;durP1;ratioP1;P2;durP2;ratioP2
11303;SDS011;5707;49.588;12.148;2022-12-05T00:01:23;13.25;;;12.13;;
11303;SDS011;5707;49.588;12.148;2022-12-05T00:03:59;13.73;;;12.55;;
11303;SDS011;5707;49.588;12.148;2022-12-05T00:06:27;13.52;;;12.32;;
11303;SDS011;5707;49.588;12.148;2022-12-05T00:08:54;14.43;;;13.13;;
11303;SDS011;5707;49.588;12.148;2022-12-05T00:11:22;13.45;;;12.35;;
11303;SDS011;5707;49.588;12.148;2022-12-05T00:13:50;12.65;;;11.55;;
11303;SDS011;5707;49.588;12.148;2022-12-05T00:16:18;12.15;;;11.25;;
11303;SDS011;5707;49.588;12.148;2022-12-05T00:18:45;12.80;;;11.50;;
11303;SDS011;5707;49.588;12.148;2022-12-05T00:21:13;11.50;;;10.60;;
11303;SDS011;5707;49.588;12.148;2022-12-05T00:23:40;12.25;;;11.25;;
11303;SDS011;5707;49.588;12.148;2022-12-05T00:26:06;10.85;;;9.93;;
11303;SDS011;5707;49.588;12.148;2022-12-05T00:28:32;11.68;;;10.68;;
11303;SDS011;5707;49.588;12.148;2022-12-05T00:31:03;10.95;;;10.15;;
11303;SDS011;5707;49.588;12.148;2022-12-05T00:33:29;11.77;;;10.88;;
11303;SDS011;5707;49.588;12.148;2022-12-05T00:35:59;11.45;;;10.48;;
11303;SDS011;5707;49.588;12.148;2022-12-05T00:38:32;11.68;;;10.77;;
11303;SDS011;5707;49.588;12.148;2022-12-05T00:41:04;11.70;;;10.80;;
11303;SDS011;5707;49.588;12.148;2022-12-05T00:43:31;11.38;;;10.48;;
11303;SDS011;5707;49.588;12.148;2022-12-05T00:46:04;11.57;;;10.63;;
11303;SDS011;5707;49.588;12.148;2022-12-05T00:48:32;10.15;;;9.32;;
11303;SDS011;5707;49.588;12.148;2022-12-05T00:50:59;12.43;;;11.32;;
11303;SDS011;5707;49.588;12.148;2022-12-05T00:53:29;11.70;;;10.68;;
11303;SDS011;5707;49.588;12.148;2022-12-05T00:55:55;11.32;;;10.43;;
11303;SDS011;5707;49.588;12.148;2022-12-05T00:58:25;11.80;;;10.88;;
11303;SDS011;5707;49.588;12.148;2022-12-05T01:00:51;10.88;;;10.00;;
11303;SDS011;5707;49.588;12.148;2022-12-05T01:03:16;12.63;;;11.63;;
11303;SDS011;5707;49.588;12.148;2022-12-05T01:05:42;11.60;;;10.32;;
11303;SDS011;5707;49.588;12.148;2022-12-05T01:08:08;11.20;;;10.30;;
11303;SDS011;5707;49.588;12.148;2022-12-05T01:10:33;11.07;;;10.18;;
11303;SDS011;5707;49.588;12.148;2022-12-05T01:12:59;11.85;;;10.75;;
11303;SDS011;5707;49.588;12.148;2022-12-05T01:15:25;10.80;;;9.98;;
11303;SDS011;5707;49.588;12.148;2022-12-05T01:17:50;11.85;;;10.85;;
11303;SDS011;5707;49.588;12.148;2022-12-05T01:20:16;11.10;;;10.23;;
11303;SDS011;5707;49.588;12.148;2022-12-05T01:22:42;11.30;;;10.30;;
11303;SDS011;5707;49.588;12.148;2022-12-05T01:25:07;11.13;;;10.32;;
11303;SDS011;5707;49.588;12.148;2022-12-05T01:27:33;10.52;;;9.73;;
11303;SDS011;5707;49.588;12.148;2022-12-05T01:29:59;11.27;;;10.27;;
11303;SDS011;5707;49.588;12.148;2022-12-05T01:32:24;11.77;;;10.88;;
11303;SDS011;5707;49.588;12.148;2022-12-05T01:34:50;10.95;;;10.13;;
11303;SDS011;5707;49.588;12.148;2022-12-05T01:37:16;11.20;;;10.30;;
11303;SDS011;5707;49.588;12.148;2022-12-05T01:39:41;10.70;;;9.90;;
11303;SDS011;5707;49.588;12.148;2022-12-05T01:42:07;11.30;;;10.40;;
11303;SDS011;5707;49.588;12.148;2022-12-05T01:46:58;10.50;;;9.70;;
11303;SDS011;5707;49.588;12.148;2022-12-05T01:49:30;10.63;;;9.73;;
11303;SDS011;5707;49.588;12.148;2022-12-05T01:52:01;11.80;;;10.85;;
11303;SDS011;5707;49.588;12.148;2022-12-05T01:54:31;10.68;;;9.77;;
11303;SDS011;5707;49.588;12.148;2022-12-05T01:57:00;11.65;;;10.65;;
11303;SDS011;5707;49.588;12.148;2022-12-05T01:59:30;11.57;;;10.57;;
11303;SDS011;5707;49.588;12.148;2022-12-05T02:01:58;10.75;;;9.88;;
11303;SDS011;5707;49.588;12.148;2022-12-05T02:04:25;10.65;;;9.75;;
11303;SDS011;5707;49.588;12.148;2022-12-05T02:06:52;10.50;;;9.68;;
11303;SDS011;5707;49.588;12.148;2022-12-05T02:09:18;10.68;;;9.77;;
11303;SDS011;5707;49.588;12.148;2022-12-05T02:11:52;10.65;;;9.85;;
11303;SDS011;5707;49.588;12.148;2022-12-05T02:17:04;10.48;;;9.68;;
11303;SDS011;5707;49.588;12.148;2022-12-05T02:31:08;9.77;;;9.07;;
11303;SDS011;5707;49.588;12.148;2022-12-05T02:39:17;9.98;;;9.18;;
11303;SDS011;5707;49.588;12.148;2022-12-05T02:42:12;9.70;;;8.90;;
11303;SDS011;5707;49.588;12.148;2022-12-05T02:44:53;9.77;;;9.00;;
11303;SDS011;5707;49.588;12.148;2022-12-05T02:47:25;10.05;;;9.30;;
11303;SDS011;5707;49.588;12.148;2022-12-05T02:49:53;9.35;;;8.65;;
11303;SDS011;5707;49.588;12.148;2022-12-05T02:52:20;9.45;;;8.65;;
11303;SDS011;5707;49.588;12.148;2022-12-05T02:54:49;9.82;;;9.13;;
11303;SDS011;5707;49.588;12.148;2022-12-05T02:57:17;10.57;;;9.48;;
11303;SDS011;5707;49.588;12.148;2022-12-05T02:59:45;9.80;;;9.10;;
11303;SDS011;5707;49.588;12.148;2022-12-05T03:02:24;10.65;;;9.68;;
11303;SDS011;5707;49.588;12.148;2022-12-05T03:04:53;9.75;;;9.00;;
11303;SDS011;5707;49.588;12.148;2022-12-05T03:07:22;9.95;;;9.15;;
11303;SDS011;5707;49.588;12.148;2022-12-05T03:10:02;10.50;;;9.60;;
11303;SDS011;5707;49.588;12.148;2022-12-05T03:12:32;9.90;;;9.10;;
11303;SDS011;5707;49.588;12.148;2022-12-05T03:15:08;10.40;;;9.63;;
11303;SDS011;5707;49.588;12.148;2022-12-05T03:17:50;9.75;;;8.90;;
11303;SDS011;5707;49.588;12.148;2022-12-05T03:20:26;9.73;;;8.82;;
11303;SDS011;5707;49.588;12.148;2022-12-05T03:25:24;11.27;;;10.38;;
11303;SDS011;5707;49.588;12.148;2022-12-05T03:28:06;10.75;;;9.85;;
11303;SDS011;5707;49.588;12.148;2022-12-05T03:30:41;10.75;;;9.85;;
11303;SDS011;5707;49.588;12.148;2022-12-05T03:33:11;9.65;;;8.85;;
11303;SDS011;5707;49.588;12.148;2022-12-05T03:35:44;9.85;;;9.15;;
11303;SDS011;5707;49.588;12.148;2022-12-05T03:38:17;10.70;;;9.60;;
11303;SDS011;5707;49.588;12.148;2022-12-05T03:46:15;10.00;;;9.30;;
11303;SDS011;5707;49.588;12.148;2022-12-05T03:51:26;9.55;;;8.75;;
11303;SDS011;5707;49.588;12.148;2022-12-05T03:54:01;11.02;;;9.90;;
11303;SDS011;5707;49.588;12.148;2022-12-05T03:56:34;11.88;;;9.70;;
11303;SDS011;5707;49.588;12.148;2022-12-05T04:02:12;10.40;;;9.60;;
11303;SDS011;5707;49.588;12.148;2022-12-05T04:05:43;10.63;;;9.82;;
11303;SDS011;5707;49.588;12.148;2022-12-05T04:07:42;10.65;;;9.75;;
11303;SDS011;5707;49.588;12.148;2022-12-05T04:10:14;9.68;;;8.85;;
11303;SDS011;5707;49.588;12.148;2022-12-05T04:12:44;9.40;;;8.70;;
11303;SDS011;5707;49.588;12.148;2022-12-05T04:15:14;10.07;;;9.27;;
11303;SDS011;5707;49.588;12.148;2022-12-05T04:17:56;9.88;;;9.18;;
11303;SDS011;5707;49.588;12.148;2022-12-05T04:20:27;11.35;;;10.45;;
11303;SDS011;5707;49.588;12.148;2022-12-05T04:23:16;11.30;;;10.40;;
11303;SDS011;5707;49.588;12.148;2022-12-05T04:26:01;12.63;;;11.43;;
11303;SDS011;5707;49.588;12.148;2022-12-05T04:28:56;12.20;;;11.20;;
11303;SDS011;5707;49.588;12.148;2022-12-05T04:31:30;11.75;;;10.75;;
11303;SDS011;5707;49.588;12.148;2022-12-05T04:34:03;13.80;;;12.60;;
11303;SDS011;5707;49.588;12.148;2022-12-05T04:36:32;11.98;;;10.98;;
11303;SDS011;5707;49.588;12.148;2022-12-05T04:39:25;10.15;;;9.40;;
11303;SDS011;5707;49.588;12.148;2022-12-05T04:42:15;9.88;;;9.05;;
11303;SDS011;5707;49.588;12.148;2022-12-05T04:44:48;10.00;;;9.27;;
11303;SDS011;5707;49.588;12.148;2022-12-05T04:47:17;9.95;;;9.15;;
11303;SDS011;5707;49.588;12.148;2022-12-05T04:49:45;10.15;;;9.35;;
11303;SDS011;5707;49.588;12.148;2022-12-05T04:52:12;10.20;;;9.40;;
11303;SDS011;5707;49.588;12.148;2022-12-05T04:57:26;10.82;;;9.85;;
11303;SDS011;5707;49.588;12.148;2022-12-05T04:59:56;9.55;;;8.85;;
11303;SDS011;5707;49.588;12.148;2022-12-05T05:02:24;9.10;;;8.40;;
11303;SDS011;5707;49.588;12.148;2022-12-05T05:04:55;10.55;;;9.65;;
11303;SDS011;5707;49.588;12.148;2022-12-05T05:07:23;9.77;;;9.00;;
11303;SDS011;5707;49.588;12.148;2022-12-05T05:09:49;10.50;;;9.45;;
11303;SDS011;5707;49.588;12.148;2022-12-05T05:12:15;10.13;;;9.10;;
11303;SDS011;5707;49.588;12.148;2022-12-05T05:14:40;10.32;;;9.48;;
11303;SDS011;5707;49.588;12.148;2022-12-05T05:17:06;10.82;;;10.02;;
11303;SDS011;5707;49.588;12.148;2022-12-05T05:19:32;11.10;;;10.20;;
11303;SDS011;5707;49.588;12.148;2022-12-05T05:21:57;10.60;;;9.80;;
11303;SDS011;5707;49.588;12.148;2022-12-05T05:24:24;11.75;;;10.75;;
11303;SDS011;5707;49.588;12.148;2022-12-05T05:26:50;10.07;;;9.27;;
11303;SDS011;5707;49.588;12.148;2022-12-05T05:29:16;10.85;;;9.95;;
11303;SDS011;5707;49.588;12.148;2022-12-05T05:31:42;11.60;;;10.60;;
11303;SDS011;5707;49.588;12.148;2022-12-05T05:34:09;11.80;;;10.73;;
11303;SDS011;5707;49.588;12.148;2022-12-05T05:36:35;11.30;;;10.40;;
11303;SDS011;5707;49.588;12.148;2022-12-05T05:39:02;10.85;;;9.98;;
11303;SDS011;5707;49.588;12.148;2022-12-05T05:41:30;11.05;;;10.15;;
11303;SDS011;5707;49.588;12.148;2022-12-05T05:44:00;10.15;;;9.35;;
11303;SDS011;5707;49.588;12.148;2022-12-05T05:46:27;11.20;;;10.20;;
11303;SDS011;5707;49.588;12.148;2022-12-05T05:48:54;10.20;;;9.40;;
11303;SDS011;5707;49.588;12.148;2022-12-05T05:51:21;11.00;;;10.10;;
11303;SDS011;5707;49.588;12.148;2022-12-05T05:53:47;9.98;;;9.07;;
11303;SDS011;5707;49.588;12.148;2022-12-05T05:56:14;10.30;;;9.40;;
11303;SDS011;5707;49.588;12.148;2022-12-05T05:58:42;10.50;;;9.60;;
11303;SDS011;5707;49.588;12.148;2022-12-05T06:01:16;10.32;;;9.48;;
11303;SDS011;5707;49.588;12.148;2022-12-05T06:03:44;9.80;;;8.98;;
11303;SDS011;5707;49.588;12.148;2022-12-05T06:06:10;9.93;;;9.13;;
11303;SDS011;5707;49.588;12.148;2022-12-05T06:08:38;9.30;;;8.60;;
11303;SDS011;5707;49.588;12.148;2022-12-05T06:11:07;9.63;;;8.77;;
11303;SDS011;5707;49.588;12.148;2022-12-05T06:13:45;8.88;;;8.25;;
11303;SDS011;5707;49.588;12.148;2022-12-05T06:16:11;9.00;;;8.30;;
11303;SDS011;5707;49.588;12.148;2022-12-05T06:18:38;10.68;;;9.77;;
11303;SDS011;5707;49.588;12.148;2022-12-05T06:21:04;10.77;;;9.98;;
11303;SDS011;5707;49.588;12.148;2022-12-05T06:23:32;10.00;;;9.30;;
11303;SDS011;5707;49.588;12.148;2022-12-05T06:26:02;10.50;;;9.60;;
11303;SDS011;5707;49.588;12.148;2022-12-05T06:28:29;9.65;;;8.95;;
11303;SDS011;5707;49.588;12.148;2022-12-05T06:30:55;10.50;;;9.68;;
11303;SDS011;5707;49.588;12.148;2022-12-05T06:33:21;9.40;;;8.70;;
11303;SDS011;5707;49.588;12.148;2022-12-05T06:35:47;10.02;;;9.18;;
11303;SDS011;5707;49.588;12.148;2022-12-05T06:38:13;9.77;;;8.98;;
11303;SDS011;5707;49.588;12.148;2022-12-05T06:40:40;9.93;;;9.13;;
11303;SDS011;5707;49.588;12.148;2022-12-05T06:43:07;9.77;;;9.07;;
11303;SDS011;5707;49.588;12.148;2022-12-05T06:45:36;9.43;;;8.70;;
11303;SDS011;5707;49.588;12.148;2022-12-05T06:48:02;9.32;;;8.63;;
11303;SDS011;5707;49.588;12.148;2022-12-05T06:50:28;8.82;;;8.13;;
11303;SDS011;5707;49.588;12.148;2022-12-05T06:52:54;8.48;;;7.78;;
11303;SDS011;5707;49.588;12.148;2022-12-05T06:55:19;9.10;;;8.30;;
11303;SDS011;5707;49.588;12.148;2022-12-05T06:57:45;8.52;;;7.93;;
11303;SDS011;5707;49.588;12.148;2022-12-05T07:00:11;9.68;;;8.68;;
11303;SDS011;5707;49.588;12.148;2022-12-05T07:02:56;9.45;;;8.68;;
11303;SDS011;5707;49.588;12.148;2022-12-05T07:05:21;10.55;;;9.70;;
11303;SDS011;5707;49.588;12.148;2022-12-05T07:07:47;10.43;;;9.63;;
11303;SDS011;5707;49.588;12.148;2022-12-05T07:10:13;9.38;;;8.38;;
11303;SDS011;5707;49.588;12.148;2022-12-05T07:12:39;8.82;;;8.13;;
11303;SDS011;5707;49.588;12.148;2022-12-05T07:15:05;7.93;;;7.22;;
11303;SDS011;5707;49.588;12.148;2022-12-05T07:17:33;8.23;;;7.47;;
11303;SDS011;5707;49.588;12.148;2022-12-05T07:20:00;8.00;;;7.20;;
11303;SDS011;5707;49.588;12.148;2022-12-05T07:22:26;6.95;;;6.45;;
11303;SDS011;5707;49.588;12.148;2022-12-05T07:24:52;7.53;;;6.93;;
11303;SDS011;5707;49.588;12.148;2022-12-05T07:27:17;8.73;;;7.93;;
11303;SDS011;5707;49.588;12.148;2022-12-05T07:29:43;9.18;;;8.40;;
11303;SDS011;5707;49.588;12.148;2022-12-05T07:32:08;7.97;;;6.50;;
11303;SDS011;5707;49.588;12.148;2022-12-05T07:34:34;7.78;;;7.18;;
11303;SDS011;5707;49.588;12.148;2022-12-05T07:37:00;6.55;;;5.90;;
11303;SDS011;5707;49.588;12.148;2022-12-05T07:39:25;7.55;;;6.88;;
11303;SDS011;5707;49.588;12.148;2022-12-05T07:41:51;5.90;;;5.47;;
11303;SDS011;5707;49.588;12.148;2022-12-05T07:44:17;6.45;;;5.93;;
11303;SDS011;5707;49.588;12.148;2022-12-05T07:46:42;6.88;;;6.38;;
11303;SDS011;5707;49.588;12.148;2022-12-05T07:49:08;5.68;;;5.28;;
11303;SDS011;5707;49.588;12.148;2022-12-05T07:51:34;5.63;;;5.22;;
11303;SDS011;5707;49.588;12.148;2022-12-05T07:53:59;6.18;;;5.78;;
11303;SDS011;5707;49.588;12.148;2022-12-05T07:56:25;6.82;;;6.20;;
11303;SDS011;5707;49.588;12.148;2022-12-05T07:58:51;5.90;;;5.47;;
11303;SDS011;5707;49.588;12.148;2022-12-05T08:01:21;5.50;;;5.10;;
11303;SDS011;5707;49.588;12.148;2022-12-05T08:03:48;6.78;;;6.28;;
11303;SDS011;5707;49.588;12.148;2022-12-05T08:06:18;5.85;;;5.45;;
11303;SDS011;5707;49.588;12.148;2022-12-05T08:08:45;6.18;;;5.72;;
11303;SDS011;5707;49.588;12.148;2022-12-05T08:11:16;6.18;;;5.68;;
11303;SDS011;5707;49.588;12.148;2022-12-05T08:13:46;6.15;;;5.68;;
11303;SDS011;5707;49.588;12.148;2022-12-05T08:16:14;5.35;;;4.95;;
11303;SDS011;5707;49.588;12.148;2022-12-05T08:18:42;6.22;;;5.70;;
11303;SDS011;5707;49.588;12.148;2022-12-05T08:21:09;7.18;;;6.53;;
11303;SDS011;5707;49.588;12.148;2022-12-05T08:23:37;8.27;;;7.57;;
11303;SDS011;5707;49.588;12.148;2022-12-05T08:26:11;7.30;;;6.80;;
11303;SDS011;5707;49.588;12.148;2022-12-05T08:28:39;7.90;;;5.47;;
11303;SDS011;5707;49.588;12.148;2022-12-05T08:31:11;6.32;;;5.75;;
11303;SDS011;5707;49.588;12.148;2022-12-05T08:33:39;5.07;;;4.68;;
11303;SDS011;5707;49.588;12.148;2022-12-05T08:36:06;5.78;;;5.28;;
11303;SDS011;5707;49.588;12.148;2022-12-05T08:38:34;6.53;;;5.28;;
11303;SDS011;5707;49.588;12.148;2022-12-05T08:41:04;5.53;;;4.93;;
11303;SDS011;5707;49.588;12.148;2022-12-05T08:43:32;5.25;;;4.85;;
11303;SDS011;5707;49.588;12.148;2022-12-05T08:45:58;4.90;;;4.45;;
11303;SDS011;5707;49.588;12.148;2022-12-05T08:48:25;5.38;;;4.88;;
11303;SDS011;5707;49.588;12.148;2022-12-05T08:50:53;5.00;;;4.60;;
11303;SDS011;5707;49.588;12.148;2022-12-05T08:53:18;4.53;;;4.15;;
11303;SDS011;5707;49.588;12.148;2022-12-05T08:55:44;4.45;;;4.15;;
11303;SDS011;5707;49.588;12.148;2022-12-05T08:58:10;4.68;;;4.35;;
11303;SDS011;5707;49.588;12.148;2022-12-05T09:00:37;4.70;;;4.30;;
11303;SDS011;5707;49.588;12.148;2022-12-05T09:03:03;4.38;;;4.07;;
11303;SDS011;5707;49.588;12.148;2022-12-05T09:05:28;4.07;;;3.78;;
11303;SDS011;5707;49.588;12.148;2022-12-05T09:07:54;4.13;;;3.83;;
11303;SDS011;5707;49.588;12.148;2022-12-05T09:10:20;4.18;;;3.88;;
11303;SDS011;5707;49.588;12.148;2022-12-05T09:12:46;4.35;;;4.05;;
11303;SDS011;5707;49.588;12.148;2022-12-05T09:15:12;4.28;;;3.97;;
11303;SDS011;5707;49.588;12.148;2022-12-05T09:17:38;3.95;;;3.65;;
11303;SDS011;5707;49.588;12.148;2022-12-05T09:20:04;4.13;;;3.83;;
11303;SDS011;5707;49.588;12.148;2022-12-05T09:22:31;4.38;;;3.97;;
11303;SDS011;5707;49.588;12.148;2022-12-05T09:24:57;4.75;;;4.35;;
11303;SDS011;5707;49.588;12.148;2022-12-05T09:27:24;3.63;;;3.42;;
11303;SDS011;5707;49.588;12.148;2022-12-05T09:29:51;4.70;;;4.30;;
11303;SDS011;5707;49.588;12.148;2022-12-05T09:32:17;4.00;;;3.67;;
11303;SDS011;5707;49.588;12.148;2022-12-05T09:34:42;4.53;;;4.18;;
11303;SDS011;5707;49.588;12.148;2022-12-05T09:37:08;4.60;;;4.25;;
11303;SDS011;5707;49.588;12.148;2022-12-05T09:39:34;3.92;;;3.63;;
11303;SDS011;5707;49.588;12.148;2022-12-05T09:44:46;4.20;;;3.90;;
11303;SDS011;5707;49.588;12.148;2022-12-05T09:47:35;3.72;;;3.50;;
11303;SDS011;5707;49.588;12.148;2022-12-05T09:55:17;3.67;;;3.40;;
11303;SDS011;5707;49.588;12.148;2022-12-05T09:57:49;6.45;;;5.95;;
11303;SDS011;5707;49.588;12.148;2022-12-05T10:00:17;4.43;;;4.13;;
11303;SDS011;5707;49.588;12.148;2022-12-05T10:02:44;3.83;;;3.63;;
11303;SDS011;5707;49.588;12.148;2022-12-05T10:05:28;5.78;;;5.38;;
11303;SDS011;5707;49.588;12.148;2022-12-05T10:08:18;4.10;;;3.80;;
11303;SDS011;5707;49.588;12.148;2022-12-05T10:16:15;3.40;;;3.20;;
11303;SDS011;5707;49.588;12.148;2022-12-05T10:18:49;4.15;;;3.38;;
11303;SDS011;5707;49.588;12.148;2022-12-05T10:24:40;4.05;;;3.65;;
11303;SDS011;5707;49.588;12.148;2022-12-05T10:27:23;4.30;;;4.00;;
11303;SDS011;5707;49.588;12.148;2022-12-05T10:32:59;3.45;;;3.15;;
11303;SDS011;5707;49.588;12.148;2022-12-05T10:35:30;3.00;;;2.80;;
11303;SDS011;5707;49.588;12.148;2022-12-05T10:40:38;3.30;;;3.10;;
11303;SDS011;5707;49.588;12.148;2022-12-05T10:43:07;3.95;;;3.65;;
11303;SDS011;5707;49.588;12.148;2022-12-05T10:45:39;3.25;;;2.95;;
11303;SDS011;5707;49.588;12.148;2022-12-05T10:48:11;4.25;;;3.95;;
11303;SDS011;5707;49.588;12.148;2022-12-05T10:50:38;4.13;;;3.83;;
11303;SDS011;5707;49.588;12.148;2022-12-05T10:53:06;4.45;;;4.15;;
11303;SDS011;5707;49.588;12.148;2022-12-05T10:55:36;4.30;;;4.00;;
11303;SDS011;5707;49.588;12.148;2022-12-05T11:00:41;3.75;;;3.45;;
11303;SDS011;5707;49.588;12.148;2022-12-05T11:03:31;4.13;;;3.83;;
11303;SDS011;5707;49.588;12.148;2022-12-05T11:06:01;3.88;;;3.58;;
11303;SDS011;5707;49.588;12.148;2022-12-05T11:08:38;4.53;;;4.22;;
11303;SDS011;5707;49.588;12.148;2022-12-05T11:13:31;4.53;;;4.22;;
11303;SDS011;5707;49.588;12.148;2022-12-05T11:15:58;5.47;;;5.07;;
11303;SDS011;5707;49.588;12.148;2022-12-05T11:18:29;6.03;;;5.53;;
11303;SDS011;5707;49.588;12.148;2022-12-05T11:21:08;4.80;;;4.50;;
11303;SDS011;5707;49.588;12.148;2022-12-05T11:23:36;4.15;;;3.85;;
11303;SDS011;5707;49.588;12.148;2022-12-05T11:26:02;4.63;;;4.32;;
11303;SDS011;5707;49.588;12.148;2022-12-05T11:30:56;5.00;;;4.68;;
11303;SDS011;5707;49.588;12.148;2022-12-05T11:33:28;6.97;;;6.38;;
11303;SDS011;5707;49.588;12.148;2022-12-05T11:36:00;6.05;;;5.60;;
11303;SDS011;5707;49.588;12.148;2022-12-05T11:38:36;5.78;;;5.28;;
11303;SDS011;5707;49.588;12.148;2022-12-05T11:41:08;6.93;;;5.95;;
11303;SDS011;5707;49.588;12.148;2022-12-05T11:44:11;6.40;;;5.80;;
11303;SDS011;5707;49.588;12.148;2022-12-05T11:47:10;5.43;;;5.03;;
11303;SDS011;5707;49.588;12.148;2022-12-05T11:52:32;7.20;;;6.68;;
11303;SDS011;5707;49.588;12.148;2022-12-05T11:55:24;5.63;;;5.22;;
11303;SDS011;5707;49.588;12.148;2022-12-05T12:11:44;6.90;;;6.20;;
11303;SDS011;5707;49.588;12.148;2022-12-05T12:14:18;6.30;;;5.70;;
11303;SDS011;5707;49.588;12.148;2022-12-05T12:36:08;6.70;;;6.25;;
11303;SDS011;5707;49.588;12.148;2022-12-05T12:41:44;9.00;;;8.25;;
11303;SDS011;5707;49.588;12.148;2022-12-05T12:46:54;6.22;;;5.72;;
11303;SDS011;5707;49.588;12.148;2022-12-05T12:52:21;6.60;;;6.10;;
11303;SDS011;5707;49.588;12.148;2022-12-05T12:55:27;6.72;;;5.97;;
11303;SDS011;5707;49.588;12.148;2022-12-05T13:03:19;7.32;;;6.72;;
11303;SDS011;5707;49.588;12.148;2022-12-05T13:05:47;7.85;;;7.15;;
11303;SDS011;5707;49.588;12.148;2022-12-05T13:11:16;6.20;;;5.72;;
11303;SDS011;5707;49.588;12.148;2022-12-05T13:13:46;5.97;;;5.47;;
11303;SDS011;5707;49.588;12.148;2022-12-05T13:16:28;6.53;;;6.03;;
11303;SDS011;5707;49.588;12.148;2022-12-05T13:18:58;9.13;;;8.38;;
11303;SDS011;5707;49.588;12.148;2022-12-05T13:21:25;7.10;;;6.57;;
11303;SDS011;5707;49.588;12.148;2022-12-05T13:23:52;6.25;;;5.75;;
11303;SDS011;5707;49.588;12.148;2022-12-05T13:26:23;5.68;;;5.28;;
11303;SDS011;5707;49.588;12.148;2022-12-05T13:28:52;5.97;;;4.78;;
11303;SDS011;5707;49.588;12.148;2022-12-05T13:31:34;4.70;;;4.32;;
11303;SDS011;5707;49.588;12.148;2022-12-05T13:36:51;3.20;;;2.92;;
11303;SDS011;5707;49.588;12.148;2022-12-05T13:39:36;3.78;;;3.47;;
11303;SDS011;5707;49.588;12.148;2022-12-05T13:42:26;3.53;;;3.28;;
11303;SDS011;5707;49.588;12.148;2022-12-05T13:47:40;4.03;;;3.72;;
11303;SDS011;5707;49.588;12.148;2022-12-05T13:52:57;3.17;;;2.97;;
11303;SDS011;5707;49.588;12.148;2022-12-05T13:55:33;3.30;;;3.08;;
11303;SDS011;5707;49.588;12.148;2022-12-05T14:00:48;3.22;;;3.03;;
11303;SDS011;5707;49.588;12.148;2022-12-05T14:03:17;2.80;;;2.60;;
11303;SDS011;5707;49.588;12.148;2022-12-05T14:06:10;2.60;;;2.40;;
11303;SDS011;5707;49.588;12.148;2022-12-05T14:08:59;2.75;;;2.55;;
11303;SDS011;5707;49.588;12.148;2022-12-05T14:11:25;2.50;;;2.30;;
11303;SDS011;5707;49.588;12.148;2022-12-05T14:13:51;2.85;;;2.65;;
11303;SDS011;5707;49.588;12.148;2022-12-05T14:19:02;1.98;;;1.88;;
11303;SDS011;5707;49.588;12.148;2022-12-05T14:22:03;2.15;;;2.05;;
11303;SDS011;5707;49.588;12.148;2022-12-05T14:24:48;2.42;;;2.33;;
11303;SDS011;5707;49.588;12.148;2022-12-05T14:27:40;2.28;;;2.08;;
11303;SDS011;5707;49.588;12.148;2022-12-05T14:30:25;2.40;;;2.20;;
11303;SDS011;5707;49.588;12.148;2022-12-05T14:32:53;3.13;;;2.92;;
11303;SDS011;5707;49.588;12.148;2022-12-05T14:38:06;3.85;;;3.17;;
11303;SDS011;5707;49.588;12.148;2022-12-05T14:40:43;4.30;;;4.00;;
11303;SDS011;5707;49.588;12.148;2022-12-05T14:48:24;2.88;;;2.67;;
11303;SDS011;5707;49.588;12.148;2022-12-05T14:51:02;2.53;;;2.42;;
11303;SDS011;5707;49.588;12.148;2022-12-05T14:54:06;2.72;;;2.53;;
11303;SDS011;5707;49.588;12.148;2022-12-05T14:56:38;2.80;;;2.60;;
11303;SDS011;5707;49.588;12.148;2022-12-05T15:01:53;3.15;;;2.95;;
11303;SDS011;5707;49.588;12.148;2022-12-05T15:04:22;3.92;;;3.63;;
11303;SDS011;5707;49.588;12.148;2022-12-05T15:07:03;4.60;;;4.30;;
11303;SDS011;5707;49.588;12.148;2022-12-05T15:12:19;3.50;;;3.30;;
11303;SDS011;5707;49.588;12.148;2022-12-05T15:15:33;2.80;;;2.60;;
11303;SDS011;5707;49.588;12.148;2022-12-05T15:18:00;2.50;;;2.35;;
11303;SDS011;5707;49.588;12.148;2022-12-05T15:23:44;2.22;;;2.13;;
11303;SDS011;5707;49.588;12.148;2022-12-05T15:28:58;2.10;;;2.00;;
11303;SDS011;5707;49.588;12.148;2022-12-05T15:31:27;2.35;;;2.15;;
11303;SDS011;5707;49.588;12.148;2022-12-05T15:33:54;4.10;;;2.30;;
11303;SDS011;5707;49.588;12.148;2022-12-05T15:36:25;3.33;;;3.13;;
11303;SDS011;5707;49.588;12.148;2022-12-05T15:38:56;5.53;;;5.13;;
11303;SDS011;5707;49.588;12.148;2022-12-05T15:41:21;5.00;;;4.60;;
11303;SDS011;5707;49.588;12.148;2022-12-05T15:43:56;3.60;;;3.30;;
11303;SDS011;5707;49.588;12.148;2022-12-05T15:46:25;4.00;;;3.70;;
11303;SDS011;5707;49.588;12.148;2022-12-05T15:48:52;5.88;;;5.47;;
11303;SDS011;5707;49.588;12.148;2022-12-05T15:51:20;7.00;;;6.50;;
11303;SDS011;5707;49.588;12.148;2022-12-05T15:54:10;6.18;;;5.68;;
11303;SDS011;5707;49.588;12.148;2022-12-05T15:57:24;4.55;;;4.15;;
11303;SDS011;5707;49.588;12.148;2022-12-05T16:02:20;4.10;;;3.80;;
11303;SDS011;5707;49.588;12.148;2022-12-05T16:04:51;4.88;;;4.40;;
11303;SDS011;5707;49.588;12.148;2022-12-05T16:07:19;5.28;;;4.78;;
11303;SDS011;5707;49.588;12.148;2022-12-05T16:09:46;5.20;;;4.85;;
11303;SDS011;5707;49.588;12.148;2022-12-05T16:15:06;7.30;;;6.72;;
11303;SDS011;5707;49.588;12.148;2022-12-05T16:17:41;6.60;;;6.20;;
11303;SDS011;5707;49.588;12.148;2022-12-05T16:22:43;4.75;;;4.45;;
11303;SDS011;5707;49.588;12.148;2022-12-05T16:25:11;5.25;;;4.82;;
11303;SDS011;5707;49.588;12.148;2022-12-05T16:27:39;5.53;;;5.13;;
11303;SDS011;5707;49.588;12.148;2022-12-05T16:32:36;4.90;;;4.60;;
11303;SDS011;5707;49.588;12.148;2022-12-05T16:35:03;4.82;;;4.53;;
11303;SDS011;5707;49.588;12.148;2022-12-05T16:37:49;4.25;;;3.95;;
11303;SDS011;5707;49.588;12.148;2022-12-05T16:40:19;5.00;;;4.70;;
11303;SDS011;5707;49.588;12.148;2022-12-05T16:42:46;6.60;;;6.10;;
11303;SDS011;5707;49.588;12.148;2022-12-05T16:45:45;7.28;;;6.78;;
11303;SDS011;5707;49.588;12.148;2022-12-05T16:50:44;5.82;;;5.43;;
11303;SDS011;5707;49.588;12.148;2022-12-05T16:53:17;5.03;;;4.72;;
11303;SDS011;5707;49.588;12.148;2022-12-05T16:55:51;5.65;;;5.25;;
11303;SDS011;5707;49.588;12.148;2022-12-05T16:58:19;5.70;;;5.28;;
11303;SDS011;5707;49.588;12.148;2022-12-05T17:00:46;5.35;;;4.95;;
11303;SDS011;5707;49.588;12.148;2022-12-05T17:03:12;5.43;;;5.05;;
11303;SDS011;5707;49.588;12.148;2022-12-05T17:05:38;4.97;;;4.57;;
11303;SDS011;5707;49.588;12.148;2022-12-05T17:08:04;7.07;;;6.47;;
11303;SDS011;5707;49.588;12.148;2022-12-05T17:10:30;8.65;;;7.95;;
11303;SDS011;5707;49.588;12.148;2022-12-05T17:12:56;9.18;;;8.38;;
11303;SDS011;5707;49.588;12.148;2022-12-05T17:15:24;9.27;;;8.57;;
11303;SDS011;5707;49.588;12.148;2022-12-05T17:17:50;9.30;;;8.60;;
11303;SDS011;5707;49.588;12.148;2022-12-05T17:20:15;9.18;;;8.52;;
11303;SDS011;5707;49.588;12.148;2022-12-05T17:22:41;8.13;;;7.53;;
11303;SDS011;5707;49.588;12.148;2022-12-05T17:25:22;6.43;;;5.97;;
11303;SDS011;5707;49.588;12.148;2022-12-05T17:27:55;6.10;;;5.60;;
11303;SDS011;5707;49.588;12.148;2022-12-05T17:30:21;5.60;;;5.10;;
11303;SDS011;5707;49.588;12.148;2022-12-05T17:32:47;6.38;;;5.88;;
11303;SDS011;5707;49.588;12.148;2022-12-05T17:35:16;5.57;;;5.15;;
11303;SDS011;5707;49.588;12.148;2022-12-05T17:37:43;5.93;;;5.15;;
11303;SDS011;5707;49.588;12.148;2022-12-05T17:40:09;5.43;;;5.03;;
11303;SDS011;5707;49.588;12.148;2022-12-05T17:42:37;5.15;;;4.75;;
11303;SDS011;5707;49.588;12.148;2022-12-05T17:45:10;4.78;;;4.38;;
11303;SDS011;5707;49.588;12.148;2022-12-05T17:47:37;5.22;;;4.82;;
11303;SDS011;5707;49.588;12.148;2022-12-05T17:50:04;5.43;;;5.03;;